Time;durP1;ratioP1;P1;durP2;ratioP2;P2;SDS_P1;SDS_P2;PMS_P1;PMS_P2;Temp;Humidity;BMP_temperature;BMP_pressure;BME280_temperature;BME280_humidity;BME280_pressure;Samples;Min_cycle;Max_cycle;Signal;HPM_P1;HPM_P2
2021/06/20 00:00:44;;;;;;;9.88;6.25;;;;;;;34.71;43.34;69803.84;5049615;28;20226;-71
2021/06/20 00:03:11;;;;;;;11.85;6.00;;;;;;;34.68;44.46;69800.56;5050301;28;20233;-71
2021/06/20 00:05:43;;;;;;;8.30;5.78;;;;;;;34.68;43.20;69799.69;5050814;28;20198;-71
2021/06/20 00:08:11;;;;;;;12.18;6.30;;;;;;;34.65;43.44;69797.44;5053529;28;20206;-71
2021/06/20 00:10:39;;;;;;;11.23;6.03;;;;;;;34.62;43.93;69793.50;5053288;28;20194;-71
2021/06/20 00:13:07;;;;;;;11.73;6.15;;;;;;;34.62;42.13;69793.50;5051524;28;20222;-71
2021/06/20 00:15:38;;;;;;;9.25;5.90;;;;;;;34.59;43.87;69789.78;5050536;28;20210;-71
2021/06/20 00:18:06;;;;;;;10.18;5.90;;;;;;;34.53;44.57;69783.56;5053779;28;20301;-71
2021/06/20 00:20:36;;;;;;;9.93;6.05;;;;;;;34.49;44.22;69779.28;5053738;28;20222;-71
2021/06/20 00:23:04;;;;;;;14.18;5.88;;;;;;;34.49;42.29;69779.28;5053534;28;20230;-71
2021/06/20 00:25:31;;;;;;;9.38;5.80;;;;;;;34.50;42.25;69779.94;5052948;28;20202;-71
2021/06/20 00:27:59;;;;;;;8.88;5.95;;;;;;;34.51;41.56;69781.53;5053888;28;20327;-68
2021/06/20 00:30:28;;;;;;;10.43;6.00;;;;;;;34.52;41.86;69782.75;5051706;28;20208;-71
2021/06/20 00:32:57;;;;;;;9.52;6.22;;;;;;;34.53;41.16;69783.91;5053186;28;20229;-71
2021/06/20 00:35:25;;;;;;;9.40;5.90;;;;;;;34.53;41.67;69784.72;5052156;28;20206;-71
2021/06/20 00:37:53;;;;;;;11.68;5.80;;;;;;;34.52;42.90;69784.06;5061141;28;20209;-71
2021/06/20 00:40:21;;;;;;;10.95;6.18;;;;;;;34.51;43.13;69782.44;5060916;28;20293;-71
2021/06/20 00:42:49;;;;;;;12.02;5.93;;;;;;;34.50;43.02;69782.00;5058370;28;20222;-71
2021/06/20 00:45:18;;;;;;;8.52;5.88;;;;;;;34.48;43.34;69778.63;5053254;28;20215;-71
2021/06/20 00:47:46;;;;;;;11.00;6.10;;;;;;;34.46;43.64;69777.19;5057576;28;20296;-69
2021/06/20 00:50:16;;;;;;;11.77;6.07;;;;;;;34.46;43.46;69776.34;5057596;28;20198;-71
2021/06/20 00:52:43;;;;;;;13.35;5.90;;;;;;;34.42;43.22;69773.25;5053568;28;20225;-71
2021/06/20 00:55:12;;;;;;;16.65;5.68;;;;;;;34.41;42.54;69771.94;5035938;28;20198;-71
2021/06/20 00:57:39;;;;;;;18.65;6.03;;;;;;;34.39;42.21;69770.16;5052384;28;20211;-71
2021/06/20 01:00:08;;;;;;;17.00;6.00;;;;;;;34.38;42.24;69769.34;5052947;28;20590;-71
2021/06/20 01:02:36;;;;;;;15.20;6.15;;;;;;;34.38;42.09;69768.00;5052730;28;20236;-71
2021/06/20 01:05:06;;;;;;;22.15;6.45;;;;;;;34.37;41.15;69766.97;5051445;28;20205;-71
2021/06/20 01:07:35;;;;;;;25.83;7.10;;;;;;;34.33;42.13;69763.56;5051011;28;20210;-70
2021/06/20 01:10:02;;;;;;;17.10;5.80;;;;;;;34.32;41.19;69761.34;5051748;28;20205;-71
2021/06/20 01:12:30;;;;;;;25.17;6.20;;;;;;;34.30;41.02;69759.78;5051743;28;20221;-71
2021/06/20 01:14:57;;;;;;;24.00;6.40;;;;;;;34.33;39.60;69763.09;5051085;28;20212;-70
2021/06/20 01:17:25;;;;;;;22.27;6.75;;;;;;;34.28;41.61;69757.78;5053096;28;20226;-70
2021/06/20 01:19:52;;;;;;;27.08;6.90;;;;;;;34.25;42.14;69753.72;5050737;28;20602;-71
2021/06/20 01:22:25;;;;;;;22.42;6.07;;;;;;;34.24;40.71;69753.31;5053270;28;20583;-70
2021/06/20 01:24:54;;;;;;;25.33;6.63;;;;;;;34.22;41.46;69750.63;5052100;28;20204;-70
2021/06/20 01:27:23;;;;;;;32.70;7.55;;;;;;;34.20;41.82;69748.34;5052060;28;20579;-70
2021/06/20 01:29:51;;;;;;;29.58;7.15;;;;;;;34.19;40.62;69747.75;5051836;28;20685;-71
2021/06/20 01:32:19;;;;;;;23.63;7.13;;;;;;;34.18;41.22;69746.25;5050876;28;20217;-70
2021/06/20 01:34:47;;;;;;;25.45;7.18;;;;;;;34.17;41.00;69745.28;5051034;28;20209;-71
2021/06/20 01:37:16;;;;;;;28.20;6.43;;;;;;;34.14;42.23;69741.69;5052146;28;20902;-70
2021/06/20 01:39:45;;;;;;;24.70;6.50;;;;;;;34.13;41.23;69741.00;5051828;28;20680;-70
2021/06/20 01:42:14;;;;;;;23.60;6.35;;;;;;;34.11;42.05;69737.94;5052186;28;20205;-70
2021/06/20 01:44:46;;;;;;;21.17;5.85;;;;;;;34.13;39.44;69740.69;5051054;28;20271;-70
2021/06/20 01:47:13;;;;;;;21.35;5.68;;;;;;;34.11;41.56;69738.69;5049751;28;20202;-71
2021/06/20 01:49:41;;;;;;;29.02;7.55;;;;;;;34.11;40.99;69738.69;5052169;28;20194;-70
2021/06/20 01:52:08;;;;;;;26.42;6.05;;;;;;;34.10;41.10;69737.53;5050087;28;20202;-71
2021/06/20 01:54:36;;;;;;;29.90;6.80;;;;;;;34.07;41.92;69733.94;5050866;28;20289;-70
2021/06/20 01:57:06;;;;;;;24.30;6.05;;;;;;;34.05;41.89;69732.09;5052099;28;20267;-70
2021/06/20 01:59:34;;;;;;;24.35;6.65;;;;;;;34.04;41.65;69730.66;5051770;28;20209;-70
2021/06/20 02:02:01;;;;;;;28.85;6.00;;;;;;;34.00;42.21;69726.22;5051013;28;20197;-71
2021/06/20 02:04:29;;;;;;;24.58;6.10;;;;;;;33.99;41.25;69725.44;5050112;28;20213;-70
2021/06/20 02:06:56;;;;;;;29.80;6.65;;;;;;;33.99;41.71;69724.94;5049846;28;20209;-70
2021/06/20 02:09:23;;;;;;;22.95;5.97;;;;;;;33.95;43.17;69720.78;5050828;28;20654;-71
2021/06/20 02:11:51;;;;;;;21.05;5.47;;;;;;;33.92;42.19;69717.47;5051425;28;20198;-70
2021/06/20 02:14:20;;;;;;;25.08;5.88;;;;;;;33.88;42.41;69713.59;5050401;28;20233;-70
2021/06/20 02:16:47;;;;;;;28.08;7.18;;;;;;;33.84;42.85;69707.97;5051386;28;20206;-71
2021/06/20 02:19:14;;;;;;;22.95;5.63;;;;;;;33.82;42.09;69707.03;5051230;28;20265;-68
2021/06/20 02:21:41;;;;;;;20.02;5.90;;;;;;;33.77;43.44;69700.47;5051196;28;20647;-68
2021/06/20 02:24:09;;;;;;;22.65;6.10;;;;;;;33.74;42.82;69697.63;5048943;28;20716;-68
2021/06/20 02:26:36;;;;;;;31.27;7.10;;;;;;;33.72;43.03;69695.03;5051020;28;20213;-68
2021/06/20 02:29:04;;;;;;;24.33;6.65;;;;;;;33.71;42.30;69693.88;5050991;28;20650;-68
2021/06/20 02:31:33;;;;;;;23.05;6.35;;;;;;;33.67;43.42;69690.38;5050923;28;20284;-68
2021/06/20 02:34:00;;;;;;;24.65;6.10;;;;;;;33.63;43.76;69685.44;5051771;28;20229;-68
2021/06/20 02:36:27;;;;;;;30.33;5.75;;;;;;;33.59;44.02;69681.47;5051223;28;20216;-68
2021/06/20 02:38:54;;;;;;;28.98;6.85;;;;;;;33.59;42.40;69681.50;5052657;28;20847;-68
2021/06/20 02:41:22;;;;;;;21.73;6.28;;;;;;;33.58;42.98;69680.66;5052047;28;20698;-68
2021/06/20 02:43:49;;;;;;;17.23;5.53;;;;;;;33.57;42.69;69679.22;5050173;28;20709;-68
2021/06/20 02:46:16;;;;;;;35.70;6.55;;;;;;;33.57;42.72;69678.97;5050890;28;20704;-68
2021/06/20 02:48:45;;;;;;;29.85;6.50;;;;;;;33.58;42.15;69680.41;5051021;28;20205;-68
2021/06/20 02:51:13;;;;;;;18.33;6.18;;;;;;;33.54;44.42;69676.19;5050297;28;20202;-68
2021/06/20 02:53:40;;;;;;;22.95;5.85;;;;;;;33.54;42.70;69675.91;5048412;28;20278;-68
2021/06/20 02:56:07;;;;;;;26.08;5.80;;;;;;;33.55;42.39;69677.25;5050632;28;20217;-68
2021/06/20 02:58:35;;;;;;;21.55;5.93;;;;;;;33.53;43.73;69674.72;5050834;28;20720;-68
2021/06/20 03:01:02;;;;;;;26.13;6.50;;;;;;;33.52;43.07;69673.66;5050321;28;20224;-68
2021/06/20 03:03:29;;;;;;;23.95;6.05;;;;;;;33.48;45.13;69670.13;5049635;28;20251;-71
2021/06/20 03:06:02;;;;;;;21.73;6.28;;;;;;;33.49;43.14;69670.44;5050480;28;20468;-70
2021/06/20 03:08:29;;;;;;;24.45;6.53;;;;;;;33.52;41.94;69673.72;5048085;28;20293;-70
2021/06/20 03:10:56;;;;;;;27.95;6.30;;;;;;;33.53;42.31;69675.44;5050760;28;20259;-71
2021/06/20 03:13:24;;;;;;;24.27;6.25;;;;;;;33.50;44.15;69672.44;5048384;28;20716;-70
2021/06/20 03:15:51;;;;;;;17.05;5.22;;;;;;;33.49;44.50;69670.56;5049927;28;20208;-70
2021/06/20 03:18:18;;;;;;;21.42;6.60;;;;;;;33.48;44.27;69670.13;5050887;28;20218;-71
2021/06/20 03:20:45;;;;;;;26.42;6.40;;;;;;;33.47;45.22;69667.75;5050516;28;20222;-70
2021/06/20 03:23:14;;;;;;;21.73;6.75;;;;;;;33.47;44.60;69668.19;5049350;28;20229;-70
2021/06/20 03:25:42;;;;;;;26.98;6.38;;;;;;;33.47;44.67;69668.28;5048875;28;20285;-70
2021/06/20 03:28:10;;;;;;;19.92;6.60;;;;;;;33.49;44.44;69669.75;5050682;28;20206;-71
2021/06/20 03:30:37;;;;;;;21.27;5.85;;;;;;;33.44;48.93;69664.31;5050413;28;20630;-71
2021/06/20 03:33:05;;;;;;;27.70;6.85;;;;;;;33.41;48.95;69661.00;5049982;28;20241;-71
2021/06/20 03:35:32;;;;;;;25.38;6.93;;;;;;;33.40;47.95;69660.66;5049739;28;20204;-71
2021/06/20 03:37:59;;;;;;;24.30;6.43;;;;;;;33.40;47.82;69660.38;5049332;28;20202;-71
2021/06/20 03:40:28;;;;;;;20.95;6.13;;;;;;;33.41;47.44;69661.53;5054243;28;20715;-71
2021/06/20 03:42:55;;;;;;;22.63;6.97;;;;;;;33.40;48.79;69660.66;5054544;28;20803;-71
2021/06/20 03:45:22;;;;;;;22.55;6.47;;;;;;;33.38;50.03;69658.97;5053317;28;20209;-71
2021/06/20 03:47:50;;;;;;;26.83;6.50;;;;;;;33.37;49.75;69657.59;5049487;28;20666;-71
2021/06/20 03:50:17;;;;;;;20.02;6.25;;;;;;;33.35;49.39;69655.88;5059151;28;20508;-71
2021/06/20 03:52:45;;;;;;;25.27;6.38;;;;;;;33.32;51.61;69652.41;5061305;28;20226;-71
2021/06/20 03:55:13;;;;;;;28.75;6.97;;;;;;;33.33;49.02;69653.84;5064048;28;20208;-70
2021/06/20 03:57:41;;;;;;;22.25;6.65;;;;;;;33.32;50.20;69652.56;5057052;28;20210;-71
2021/06/20 04:00:11;;;;;;;25.08;6.40;;;;;;;33.33;49.37;69653.53;5055322;28;20220;-71
2021/06/20 04:02:38;;;;;;;21.58;6.28;;;;;;;33.35;49.80;69655.88;5054495;28;20229;-71
2021/06/20 04:05:07;;;;;;;26.42;6.80;;;;;;;33.36;48.58;69657.38;5051733;28;20216;-71
2021/06/20 04:07:34;;;;;;;21.88;6.38;;;;;;;33.37;48.67;69658.50;5051991;28;20211;-71
2021/06/20 04:10:03;;;;;;;21.08;6.55;;;;;;;33.39;47.83;69660.94;5052528;28;20213;-71
2021/06/20 04:12:30;;;;;;;26.92;6.43;;;;;;;33.40;49.07;69661.06;5052771;28;20249;-71
2021/06/20 04:14:59;;;;;;;20.95;6.50;;;;;;;33.40;48.83;69661.56;5053224;28;20206;-71
2021/06/20 04:17:29;;;;;;;14.85;6.28;;;;;;;33.41;48.87;69662.34;5053747;28;20319;-71
2021/06/20 04:19:56;;;;;;;20.50;6.20;;;;;;;33.38;51.62;69659.44;5051483;28;20202;-71
2021/06/20 04:22:23;;;;;;;18.48;5.57;;;;;;;33.40;48.92;69661.56;5052045;28;20940;-71
2021/06/20 04:24:50;;;;;;;20.90;5.85;;;;;;;33.43;49.04;69665.09;5052974;28;20685;-71
2021/06/20 04:27:18;;;;;;;19.83;7.75;;;;;;;33.43;50.46;69665.38;5053506;28;20674;-71
2021/06/20 04:29:45;;;;;;;14.73;5.85;;;;;;;33.44;50.50;69665.97;5053614;28;20208;-71
2021/06/20 04:32:14;;;;;;;27.85;6.40;;;;;;;33.44;49.66;69666.53;5053335;28;20309;-71
2021/06/20 04:34:41;;;;;;;23.08;5.43;;;;;;;33.45;48.75;69666.50;5051928;28;20209;-71
2021/06/20 04:37:08;;;;;;;18.65;5.82;;;;;;;33.46;47.84;69667.75;5052232;28;20210;-71
2021/06/20 04:39:35;;;;;;;23.17;5.43;;;;;;;33.46;47.79;69668.09;5053389;28;20233;-71
2021/06/20 04:42:05;;;;;;;25.35;5.93;;;;;;;33.46;48.28;69668.56;5053162;28;20228;-71
2021/06/20 04:44:45;;;;;;;23.08;5.88;;;;;;;33.45;50.04;69667.25;5052734;28;20202;-71
2021/06/20 04:47:15;;;;;;;19.52;5.60;;;;;;;33.42;50.00;69664.00;5052947;28;20213;-71
2021/06/20 04:49:43;;;;;;;17.70;5.60;;;;;;;33.44;47.90;69666.16;5052206;28;20228;-71
2021/06/20 04:52:12;;;;;;;20.52;5.63;;;;;;;33.44;49.07;69666.41;5050735;28;20666;-71
2021/06/20 04:54:49;;;;;;;16.15;5.60;;;;;;;33.43;49.63;69665.44;5052304;28;20735;-71
2021/06/20 04:57:18;;;;;;;23.42;5.72;;;;;;;33.45;47.32;69667.41;5052629;28;20741;-71
2021/06/20 04:59:46;;;;;;;25.23;5.28;;;;;;;33.49;45.84;69672.03;5052651;28;20205;-71
2021/06/20 05:02:15;;;;;;;19.73;5.40;;;;;;;33.52;45.15;69675.50;5052062;28;20320;-71
2021/06/20 05:04:42;;;;;;;20.25;4.93;;;;;;;33.55;44.83;69678.38;5053524;28;20216;-72
2021/06/20 05:07:10;;;;;;;14.55;4.03;;;;;;;33.59;43.89;69683.56;5050728;28;20206;-73
2021/06/20 05:09:39;;;;;;;19.92;3.92;;;;;;;33.63;44.10;69688.19;5053631;28;20248;-73
2021/06/20 05:12:08;;;;;;;17.88;5.35;;;;;;;33.67;43.29;69693.13;5051303;28;20208;-72
2021/06/20 05:14:35;;;;;;;14.02;4.30;;;;;;;33.69;44.88;69694.91;5052701;28;20206;-71
2021/06/20 05:17:03;;;;;;;15.95;5.15;;;;;;;33.71;44.30;69697.63;5051165;28;20198;-73
2021/06/20 05:19:32;;;;;;;17.67;4.22;;;;;;;33.72;44.82;69698.31;5053671;28;20229;-73
2021/06/20 05:21:59;;;;;;;12.07;3.95;;;;;;;33.72;44.31;69697.66;5052876;28;20229;-71
2021/06/20 05:24:26;;;;;;;13.18;3.78;;;;;;;33.69;44.42;69694.38;5053292;28;20222;-74
2021/06/20 05:26:53;;;;;;;17.35;4.35;;;;;;;33.68;44.52;69693.50;5052057;28;20578;-73
2021/06/20 05:29:21;;;;;;;11.05;3.30;;;;;;;33.60;46.55;69685.25;5053938;28;20212;-73
2021/06/20 05:31:48;;;;;;;11.73;3.88;;;;;;;33.56;45.09;69680.03;5053408;28;20198;-74
2021/06/20 05:34:15;;;;;;;9.40;3.10;;;;;;;33.50;46.17;69674.31;5052736;28;20258;-72
2021/06/20 05:36:44;;;;;;;11.68;3.40;;;;;;;33.43;48.37;69666.59;5053393;28;20209;-74
2021/06/20 05:39:11;;;;;;;12.32;3.35;;;;;;;33.38;47.85;69661.16;5054207;28;20289;-70
2021/06/20 05:41:39;;;;;;;10.43;3.10;;;;;;;33.34;46.92;69656.50;5053867;28;20319;-74
2021/06/20 05:44:06;;;;;;;11.73;3.38;;;;;;;33.32;46.23;69653.88;5054001;28;20264;-72
2021/06/20 05:46:33;;;;;;;9.50;3.40;;;;;;;33.30;46.83;69651.56;5053885;28;20205;-73
2021/06/20 05:49:01;;;;;;;10.57;2.92;;;;;;;33.29;46.86;69650.25;5053638;28;20677;-72
2021/06/20 05:51:28;;;;;;;12.15;3.25;;;;;;;33.29;45.21;69651.31;5051412;28;20197;-71
2021/06/20 05:53:57;;;;;;;10.23;3.40;;;;;;;33.28;45.18;69650.22;5051470;28;20225;-71
2021/06/20 05:56:24;;;;;;;9.20;2.70;;;;;;;33.29;43.99;69651.09;5052720;28;20235;-72
2021/06/20 05:58:51;;;;;;;14.85;3.08;;;;;;;33.30;43.66;69653.13;5053876;28;20202;-72
2021/06/20 06:01:18;;;;;;;11.13;2.60;;;;;;;33.34;42.55;69657.75;5055564;28;20640;-74
2021/06/20 06:03:46;;;;;;;10.75;2.67;;;;;;;33.34;44.59;69657.22;5052257;28;20228;-75
2021/06/20 06:06:13;;;;;;;10.43;3.25;;;;;;;33.36;43.88;69659.00;5056286;28;20216;-73
2021/06/20 06:08:41;;;;;;;10.70;2.95;;;;;;;33.37;43.57;69660.56;5054972;28;20201;-72
2021/06/20 06:11:09;;;;;;;15.10;3.13;;;;;;;33.37;44.56;69660.28;5054491;28;20198;-75
2021/06/20 06:13:37;;;;;;;9.93;2.97;;;;;;;33.41;43.32;69665.38;5046589;28;20229;-74
2021/06/20 06:16:04;;;;;;;10.27;3.65;;;;;;;33.52;39.58;69677.44;5054418;28;20209;-75
2021/06/20 06:18:32;;;;;;;12.68;2.90;;;;;;;33.51;44.16;69676.69;5060101;28;20273;-76
2021/06/20 06:20:59;;;;;;;9.15;3.28;;;;;;;33.50;44.73;69676.22;5053064;28;20206;-71
2021/06/20 06:23:26;;;;;;;8.75;2.55;;;;;;;33.55;43.29;69681.13;5053482;28;20225;-73
2021/06/20 06:25:54;;;;;;;10.15;2.85;;;;;;;33.57;43.29;69683.78;5051302;28;20231;-73
2021/06/20 06:28:22;;;;;;;11.52;2.65;;;;;;;33.53;45.10;69679.34;5051774;28;20210;-72
2021/06/20 06:30:50;;;;;;;9.63;3.00;;;;;;;33.57;42.30;69684.88;5051870;28;20241;-73
2021/06/20 06:33:17;;;;;;;8.50;3.28;;;;;;;33.60;41.13;69687.88;5051802;28;20240;-72
2021/06/20 06:35:44;;;;;;;7.50;3.28;;;;;;;33.56;45.00;69682.91;5049321;28;20202;-73
2021/06/20 06:38:12;;;;;;;6.60;2.85;;;;;;;33.58;42.34;69685.22;5049479;28;20691;-72
2021/06/20 06:40:39;;;;;;;14.35;3.35;;;;;;;33.66;39.93;69694.16;5047945;28;20666;-76
2021/06/20 06:43:06;;;;;;;12.43;3.28;;;;;;;33.73;39.94;69702.25;5048998;28;20228;-76
2021/06/20 06:45:35;;;;;;;12.60;3.90;;;;;;;33.73;45.00;69702.41;5050798;28;20198;-74
2021/06/20 06:48:03;;;;;;;14.27;4.05;;;;;;;33.79;41.96;69710.06;5051230;28;20198;-77
2021/06/20 06:50:30;;;;;;;17.83;5.13;;;;;;;33.87;42.19;69718.84;5051466;28;20220;-75
2021/06/20 06:52:57;;;;;;;15.45;4.22;;;;;;;33.89;44.89;69721.00;5051774;28;20268;-78
2021/06/20 06:55:25;;;;;;;16.40;4.93;;;;;;;33.91;44.92;69723.41;5043062;28;20287;-76
2021/06/20 06:57:52;;;;;;;19.27;5.07;;;;;;;33.86;50.03;69717.88;5051499;28;20597;-74
2021/06/20 07:00:21;;;;;;;12.63;4.82;;;;;;;33.78;53.27;69708.94;5050280;28;20206;-77
2021/06/20 07:02:49;;;;;;;21.63;6.10;;;;;;;33.77;49.52;69707.22;5051015;28;20236;-76
2021/06/20 07:05:17;;;;;;;16.08;5.45;;;;;;;33.78;48.13;69708.59;5051156;28;20208;-77
2021/06/20 07:07:44;;;;;;;20.52;5.03;;;;;;;33.73;51.55;69702.25;5051637;28;20208;-77
2021/06/20 07:10:12;;;;;;;19.55;5.72;;;;;;;33.64;55.08;69691.88;5050657;28;20208;-73
2021/06/20 07:12:39;;;;;;;20.52;6.00;;;;;;;33.60;52.35;69687.38;5050456;28;20674;-76
2021/06/20 07:15:08;;;;;;;15.07;5.65;;;;;;;33.61;49.93;69688.84;5057111;28;20209;-74
2021/06/20 07:17:36;;;;;;;14.23;5.35;;;;;;;33.59;52.05;69687.00;5057323;28;20202;-72
2021/06/20 07:20:08;;;;;;;16.15;5.43;;;;;;;33.57;51.96;69683.94;5056273;28;20443;-72
2021/06/20 07:22:36;;;;;;;19.88;5.95;;;;;;;33.50;55.48;69676.38;5055042;28;20230;-75
2021/06/20 07:25:05;;;;;;;16.45;4.65;;;;;;;33.43;55.49;69669.50;5056935;28;20198;-76
2021/06/20 07:27:34;;;;;;;12.52;4.38;;;;;;;33.30;59.47;69654.81;5058163;28;20198;-77
2021/06/20 07:30:02;;;;;;;13.73;4.53;;;;;;;33.33;50.38;69657.44;5052871;28;20621;-77
2021/06/20 07:32:30;;;;;;;17.90;4.93;;;;;;;33.30;53.57;69654.31;5054573;28;20588;-75
2021/06/20 07:34:57;;;;;;;12.60;4.97;;;;;;;33.27;53.12;69651.69;5049996;28;20232;-77
2021/06/20 07:37:26;;;;;;;10.98;3.83;;;;;;;33.23;52.34;69647.41;5057626;28;20289;-77
2021/06/20 07:39:53;;;;;;;15.07;4.70;;;;;;;33.20;52.86;69642.75;5057956;28;20209;-78
2021/06/20 07:42:20;;;;;;;10.57;4.00;;;;;;;33.13;55.02;69634.50;5057888;28;20233;-76
2021/06/20 07:44:48;;;;;;;15.02;4.97;;;;;;;33.06;55.16;69627.03;5059459;28;20682;-75
2021/06/20 07:47:15;;;;;;;13.50;4.65;;;;;;;33.05;51.75;69625.59;5059058;28;20232;-75
2021/06/20 07:49:42;;;;;;;19.05;5.50;;;;;;;33.04;52.24;69624.63;5058234;28;20209;-75
2021/06/20 07:52:10;;;;;;;16.25;4.63;;;;;;;33.03;51.42;69623.84;5057695;28;20635;-75
2021/06/20 07:54:42;;;;;;;16.33;5.38;;;;;;;33.07;48.41;69628.31;5057015;28;20201;-74
2021/06/20 07:57:09;;;;;;;14.07;4.43;;;;;;;33.09;49.92;69630.44;5058671;28;20285;-74
2021/06/20 07:59:37;;;;;;;12.43;4.57;;;;;;;33.05;53.88;69625.59;5057273;28;20202;-74
2021/06/20 08:02:05;;;;;;;10.50;4.20;;;;;;;33.05;50.63;69626.19;5057352;28;20225;-67
2021/06/20 08:04:32;;;;;;;16.65;4.60;;;;;;;33.11;49.47;69632.34;5060316;28;20265;-76
2021/06/20 08:06:59;;;;;;;16.92;5.80;;;;;;;33.14;49.69;69636.38;5062138;28;20204;-78
2021/06/20 08:09:27;;;;;;;13.68;4.68;;;;;;;33.13;52.78;69634.84;5059299;28;20197;-72
2021/06/20 08:11:55;;;;;;;9.55;4.72;;;;;;;33.13;51.23;69635.88;5057020;28;20206;-70
2021/06/20 08:14:22;;;;;;;12.25;4.38;;;;;;;33.11;53.58;69633.16;5054825;28;20277;-70
2021/06/20 08:16:50;;;;;;;18.85;6.13;;;;;;;33.09;53.11;69631.31;5056451;28;20661;-72
2021/06/20 08:19:17;;;;;;;12.52;4.88;;;;;;;33.11;50.95;69633.63;5054061;28;20206;-71
2021/06/20 08:21:44;;;;;;;12.70;4.07;;;;;;;33.14;50.83;69636.84;5056688;28;20226;-73
2021/06/20 08:24:12;;;;;;;14.07;4.32;;;;;;;33.18;50.28;69641.47;5054885;28;20222;-73
2021/06/20 08:26:39;;;;;;;12.65;4.70;;;;;;;33.20;49.93;69644.63;5052703;28;20210;-73
2021/06/20 08:29:09;;;;;;;12.80;4.47;;;;;;;33.26;48.38;69650.88;5054373;28;20212;-75
2021/06/20 08:31:36;;;;;;;13.68;4.95;;;;;;;33.22;52.47;69647.28;5052112;28;20208;-75
2021/06/20 08:34:06;;;;;;;14.80;4.40;;;;;;;33.21;51.41;69645.72;5050911;28;20301;-74
2021/06/20 08:36:33;;;;;;;18.00;4.80;;;;;;;33.21;51.63;69645.63;5053376;28;20206;-73
2021/06/20 08:39:00;;;;;;;12.52;4.95;;;;;;;33.22;50.71;69646.97;5052956;28;20221;-72
2021/06/20 08:41:29;;;;;;;16.17;4.22;;;;;;;33.23;50.42;69647.53;5053327;28;20202;-73
2021/06/20 08:43:57;;;;;;;13.32;4.65;;;;;;;33.21;51.54;69645.22;5052981;28;20590;-70
2021/06/20 08:46:26;;;;;;;12.07;4.50;;;;;;;33.23;49.17;69647.06;5052098;28;20542;-70
2021/06/20 08:48:53;;;;;;;13.63;4.60;;;;;;;33.20;51.66;69644.06;5052666;28;20208;-72
2021/06/20 08:51:20;;;;;;;17.92;4.20;;;;;;;33.27;46.54;69652.38;5052229;28;20217;-71
2021/06/20 08:53:48;;;;;;;13.70;3.80;;;;;;;33.27;49.88;69652.13;5053219;28;20220;-76
2021/06/20 08:56:15;;;;;;;11.65;4.20;;;;;;;33.30;48.62;69655.16;5052886;28;20680;-77
2021/06/20 08:58:43;;;;;;;11.77;4.28;;;;;;;33.35;47.20;69660.78;5052334;28;20645;-78
2021/06/20 09:01:10;;;;;;;11.77;4.50;;;;;;;33.37;48.49;69664.13;5051820;28;20208;-77
2021/06/20 09:03:45;;;;;;;11.60;3.88;;;;;;;33.42;46.95;69668.84;5046980;28;20228;-78
2021/06/20 09:06:16;;;;;;;13.35;4.15;;;;;;;33.40;50.61;69667.00;5053217;28;20207;-75
2021/06/20 09:08:47;;;;;;;12.43;4.30;;;;;;;33.35;52.66;69660.78;5051640;28;20211;-72
2021/06/20 09:11:27;;;;;;;15.57;4.20;;;;;;;33.35;49.02;69661.06;5053016;28;20202;-73
2021/06/20 09:14:06;;;;;;;11.77;4.30;;;;;;;33.38;48.69;69664.06;5053111;28;20234;-72
2021/06/20 09:16:34;;;;;;;12.43;4.38;;;;;;;33.44;46.28;69671.34;5053965;28;20202;-73
2021/06/20 09:19:03;;;;;;;11.90;4.07;;;;;;;33.51;44.87;69680.13;5053317;28;20211;-72
2021/06/20 09:21:30;;;;;;;12.18;4.75;;;;;;;33.49;49.09;69677.63;5052556;28;20215;-72
2021/06/20 09:23:59;;;;;;;11.95;4.35;;;;;;;33.45;50.72;69673.09;5051295;28;20230;-75
2021/06/20 09:26:34;;;;;;;12.75;4.00;;;;;;;33.46;48.42;69674.09;5053212;28;20596;-75
2021/06/20 09:29:01;;;;;;;13.50;4.38;;;;;;;33.36;54.50;69662.72;5051497;28;20205;-71
2021/06/20 09:31:44;;;;;;;11.80;4.68;;;;;;;33.36;49.28;69662.56;5052712;28;20221;-73
2021/06/20 09:34:12;;;;;;;10.05;4.10;;;;;;;33.36;49.56;69663.16;5054347;28;20222;-79
2021/06/20 09:36:40;;;;;;;12.02;4.38;;;;;;;33.31;51.85;69657.38;5049237;28;20707;-78
2021/06/20 09:39:17;;;;;;;17.27;4.32;;;;;;;33.35;48.08;69661.34;5053956;28;20206;-77
2021/06/20 09:41:57;;;;;;;10.07;4.53;;;;;;;33.33;51.29;69659.56;5053701;28;20198;-78
2021/06/20 09:44:34;;;;;;;9.88;3.70;;;;;;;33.39;45.89;69666.59;5050101;28;20219;-75
2021/06/20 09:47:01;;;;;;;12.75;4.90;;;;;;;33.34;51.31;69659.63;5049453;28;20566;-76
2021/06/20 09:49:30;;;;;;;15.27;4.35;;;;;;;33.34;49.44;69660.09;5052183;28;20235;-77
2021/06/20 09:51:58;;;;;;;12.07;3.63;;;;;;;33.34;49.02;69660.81;5047716;28;20199;-76
2021/06/20 09:54:30;;;;;;;17.52;4.38;;;;;;;33.36;48.26;69662.56;5045145;28;20249;-75
2021/06/20 09:56:58;;;;;;;12.55;3.88;;;;;;;33.41;46.58;69668.75;5052112;28;20674;-73
2021/06/20 09:59:30;;;;;;;13.18;4.13;;;;;;;33.54;42.09;69683.91;5052132;28;20274;-77
2021/06/20 10:02:13;;;;;;;14.63;3.67;;;;;;;33.54;46.26;69683.91;5051667;28;20205;-72
2021/06/20 10:04:42;;;;;;;12.63;3.40;;;;;;;33.52;44.18;69681.38;5047347;28;20317;-70
2021/06/20 10:07:11;;;;;;;12.13;3.13;;;;;;;33.46;44.19;69674.34;5049805;28;20524;-70
2021/06/20 10:09:39;;;;;;;10.75;2.92;;;;;;;33.40;43.27;69668.16;5051576;28;20220;-73
2021/06/20 10:12:08;;;;;;;13.43;2.60;;;;;;;33.45;38.56;69673.00;5051509;28;20202;-76
2021/06/20 10:14:42;;;;;;;10.45;2.97;;;;;;;33.43;40.91;69671.75;5051483;28;20198;-73
2021/06/20 10:17:12;;;;;;;9.40;2.22;;;;;;;33.47;37.78;69675.13;5051086;28;20205;-72
2021/06/20 10:19:41;;;;;;;8.80;2.70;;;;;;;33.53;35.92;69682.09;5051124;28;20214;-71
2021/06/20 10:22:10;;;;;;;8.18;2.55;;;;;;;33.54;38.17;69683.63;5049803;28;20266;-71
2021/06/20 10:24:45;;;;;;;6.55;2.33;;;;;;;33.54;38.82;69683.63;5050775;28;20205;-73
2021/06/20 10:27:16;;;;;;;10.00;2.53;;;;;;;33.60;35.82;69689.66;5050782;28;20658;-73
2021/06/20 10:29:54;;;;;;;9.02;1.92;;;;;;;33.70;33.05;69701.31;5049739;28;20207;-75
2021/06/20 10:32:23;;;;;;;6.85;2.10;;;;;;;33.83;31.20;69716.19;5051151;28;20202;-76
2021/06/20 10:34:54;;;;;;;9.20;2.65;;;;;;;33.93;33.82;69727.22;5051021;28;20205;-71
2021/06/20 10:37:22;;;;;;;3.88;2.15;;;;;;;33.92;36.71;69726.22;5051071;28;20236;-74
2021/06/20 10:39:51;;;;;;;10.75;2.58;;;;;;;33.91;36.46;69724.97;5051697;28;20209;-74
2021/06/20 10:42:19;;;;;;;7.38;2.78;;;;;;;33.97;34.69;69732.06;5049670;28;20212;-76
2021/06/20 10:44:49;;;;;;;11.20;2.95;;;;;;;33.93;36.99;69728.31;5050673;28;20215;-77
2021/06/20 10:47:30;;;;;;;7.13;2.50;;;;;;;33.88;38.22;69722.00;5051310;28;20218;-75
2021/06/20 10:50:00;;;;;;;7.03;2.47;;;;;;;33.82;38.04;69715.25;5051414;28;20216;-74
2021/06/20 10:52:27;;;;;;;4.65;2.03;;;;;;;33.78;38.09;69711.00;5051041;28;20232;-74
2021/06/20 10:55:10;;;;;;;5.07;1.95;;;;;;;33.71;38.72;69702.53;5042883;28;20200;-75
2021/06/20 10:57:46;;;;;;;6.13;2.20;;;;;;;33.70;36.21;69701.19;5051858;28;20208;-75
2021/06/20 11:00:25;;;;;;;10.25;2.10;;;;;;;33.75;35.20;69707.72;5054124;28;20306;-77
2021/06/20 11:02:54;;;;;;;7.28;2.10;;;;;;;33.72;37.11;69704.31;5055887;28;20696;-78
2021/06/20 11:05:24;;;;;;;9.80;2.92;;;;;;;33.71;36.71;69703.44;5060611;28;20213;-78
2021/06/20 11:07:52;;;;;;;7.60;2.20;;;;;;;33.75;35.49;69707.50;5058408;28;20205;-78
2021/06/20 11:10:23;;;;;;;8.02;2.15;;;;;;;33.76;36.41;69708.81;5050395;28;20212;-75
2021/06/20 11:12:55;;;;;;;11.38;2.08;;;;;;;33.87;33.53;69721.66;5050453;28;20774;-76
2021/06/20 11:15:27;;;;;;;9.77;2.75;;;;;;;33.94;34.54;69729.28;5051848;28;20201;-78
2021/06/20 11:18:05;;;;;;;7.65;2.20;;;;;;;34.10;31.86;69748.06;5052895;28;20225;-77
2021/06/20 11:20:35;;;;;;;4.63;1.95;;;;;;;34.17;34.30;69755.84;5046285;28;20570;-76
2021/06/20 11:23:03;;;;;;;8.27;2.53;;;;;;;34.27;34.61;69767.41;5051227;28;20240;-75
2021/06/20 11:25:31;;;;;;;5.50;2.67;;;;;;;34.40;32.17;69782.72;5047898;28;20199;-74
2021/06/20 11:27:58;;;;;;;9.52;2.47;;;;;;;34.52;32.99;69796.50;5051046;28;20205;-73
2021/06/20 11:30:26;;;;;;;8.32;2.55;;;;;;;34.65;33.02;69811.75;5046020;28;20206;-77
2021/06/20 11:32:53;;;;;;;8.27;2.08;;;;;;;34.74;33.19;69822.28;5048560;28;20218;-74